ADDS METAR Data INFO
IDs: Format: Raw Decoded Include TAF

Data at: 0459 UTC 25 May 2018

KTFP 250455Z AUTO 18005KT 10SM SCT015 26/24 A3000 RMK AO2 T02610237 PNO
KTFP 250435Z AUTO 17005KT 10SM CLR 26/24 A3001 RMK AO2 T02640236 PNO
KTFP 250415Z AUTO 17007KT 10SM CLR 26/24 A3001 RMK AO2 T02640235 PNO
KTFP 250355Z AUTO 16006KT 10SM CLR 27/24 A3001 RMK AO2 T02660236 PNO
KTFP 250335Z AUTO 16007KT 10SM SCT015 SCT020 27/24 A3000 RMK AO2 T02670236 PNO
KTFP 250315Z AUTO 15005KT 10SM SCT015 SCT020 27/24 A2999 RMK AO2 T02660235 PNO
KTFP 250255Z AUTO 00000KT 10SM CLR 27/24 A2999 RMK AO2 T02670235 PNO
KTFP 250235Z AUTO 15005KT 10SM CLR 27/24 A2998 RMK AO2 T02680235 PNO
KTFP 250215Z AUTO 14006KT 10SM CLR 27/23 A2997 RMK AO2 T02680233 PNO
KTFP 250155Z AUTO 14006KT 10SM CLR 27/23 A2997 RMK AO2 T02690233 PNO
KTFP 250135Z AUTO 17006KT 10SM CLR 27/23 A2996 RMK AO2 T02720232 PNO
KTFP 250115Z AUTO 16006KT 10SM CLR 28/23 A2995 RMK AO2 T02770230 PNO
KTFP 250055Z AUTO 16008KT 10SM CLR 28/23 A2996 RMK AO2 T02830232 PNO
KTFP 250035Z AUTO 16009KT 10SM CLR 29/23 A2996 RMK AO2 T02890231 PNO
KTFP 250015Z AUTO 15008KT 10SM CLR 29/23 A2996 RMK AO2 T02930230 PNO
KTFP 242355Z AUTO 15010KT 10SM CLR 30/23 A2996 RMK AO2 T02990231 PNO
KTFP 242335Z AUTO 16011KT 10SM CLR 30/23 A2997 RMK AO2 T03010232 PNO
KTFP 242315Z AUTO 16012KT 10SM CLR 30/23 A2996 RMK AO2 T03040233 PNO
KTFP 242255Z AUTO 14013G17KT 10SM CLR 31/23 A2996 RMK AO2 T03070232 PNO
KTFP 242235Z AUTO 15013KT 10SM CLR 31/23 A2996 RMK AO2 T03100232 PNO
KTFP 242215Z AUTO 15012KT 10SM CLR 31/23 A2997 RMK AO2 T03120233 PNO
KTFP 242155Z AUTO 13012KT 10SM CLR 31/23 A2997 RMK AO2 T03130230 PNO
KTFP 242135Z AUTO 16011KT 10SM CLR 32/23 A2997 RMK AO2 T03160234 PNO
KTFP 242115Z AUTO 16013G17KT 10SM CLR 32/24 A2998 RMK AO2 T03170236 PNO
KTFP 242055Z AUTO 15011KT 10SM CLR 31/23 A2998 RMK AO2 T03060234 PNO
KTFP 242035Z AUTO 15012KT 10SM SCT021 31/23 A2999 RMK AO2 T03090234 PNO
KTFP 242015Z AUTO 15012KT 10SM CLR 32/24 A3000 RMK AO2 T03180235 PNO
KTFP 241955Z AUTO 15012G15KT 10SM SCT022 SCT027 33/24 A2999 RMK AO2 T03250237 PNO
KTFP 241935Z AUTO 15010G17KT 10SM SCT022 SCT027 32/24 A3000 RMK AO2 T03220241 PNO
KTFP 241915Z AUTO 15010G16KT 10SM SCT022 SCT027 32/24 A3000 RMK AO2 LTG DSNT E T03210238 PNO
KTFP 241855Z AUTO 16011G15KT 10SM CLR 32/23 A3001 RMK AO2 T03220233 PNO
KTFP 241835Z AUTO 19009G14KT 10SM CLR 32/23 A3001 RMK AO2 T03240233 PNO
KTFP 241815Z AUTO 14011G14KT 10SM SCT028 32/23 A3002 RMK AO2 T03190232 PNO
KTFP 241755Z AUTO 16008G14KT 130V190 10SM SCT026 SCT032 32/23 A3003 RMK AO2 LTG DSNT N T03190231 PNO
KTFP 241735Z AUTO 18005G14KT 10SM SCT026 32/23 A3003 RMK AO2 T03190229 PNO
KTFP 241715Z AUTO 16008KT 10SM SCT028 32/23 A3003 RMK AO2 T03180225 PNO
KTFP 241655Z AUTO 15008KT 10SM SCT028 32/23 A3003 RMK AO2 T03200232 PNO
KTFP 241635Z AUTO 17008KT 10SM SCT028 SCT039 BKN050 31/23 A3003 RMK AO2 T03090232 PNO
KTFP 241615Z AUTO 23006KT 10SM BKN026 BKN036 OVC055 30/23 A3004 RMK AO2 T02980229 PNO
KTFP 241555Z AUTO 23005KT 10SM SCT024 BKN029 BKN037 30/23 A3004 RMK AO2 T03040230 PNO
KTFP 241535Z AUTO 21005KT 10SM SCT025 SCT033 SCT040 30/23 A3004 RMK AO2 T03030232 PNO
KTFP 241515Z AUTO 18004KT 10SM SCT022 SCT028 30/23 A3003 RMK AO2 T03000231 PNO
KTFP 241455Z AUTO 20006KT 10SM SCT022 30/23 A3003 RMK AO2 T02990232 PNO
KTFP 241435Z AUTO 17008KT 10SM SCT020 29/23 A3002 RMK AO2 T02940234 PNO
KTFP 241355Z AUTO 16006KT 10SM SCT013 SCT019 29/24 A3002 RMK AO2 T02890239 PNO
KTFP 241335Z AUTO 15006KT 10SM CLR 28/24 A3002 RMK AO2 T02820244 PNO
KTFP 241315Z AUTO 15004KT 10SM CLR 28/25 A3002 RMK AO2 T02780246 PNO
KTFP 241255Z AUTO 16003KT 10SM CLR 27/25 A3002 RMK AO2 T02690246 PNO
KTFP 241235Z AUTO 14003KT 10SM CLR 26/24 A3001 RMK AO2 T02630243 PNO
KTFP 241155Z AUTO 00000KT 10SM CLR 26/24 A3000 RMK AO2 T02580238 PNO
KTFP 241135Z AUTO 14003KT 10SM CLR 26/24 A3001 RMK AO2 T02560237 PNO
KTFP 241115Z AUTO 12003KT 10SM CLR 25/24 A3000 RMK AO2 T02530236 PNO
KTFP 241055Z AUTO 00000KT 10SM CLR 25/24 A3000 RMK AO2 T02520236 PNO
KTFP 241035Z AUTO 16003KT 10SM CLR 25/24 A3000 RMK AO2 T02520236 PNO
KTFP 241015Z AUTO 16004KT 10SM CLR 26/24 A2999 RMK AO2 T02550237 PNO
KTFP 240955Z AUTO 16004KT 10SM SCT015 SCT023 SCT029 26/24 A2999 RMK AO2 LTG DSNT NE T02560239 PNO
KTFP 240935Z AUTO 17004KT 10SM SCT015 SCT023 26/24 A2999 RMK AO2 T02570240 PNO
KTFP 240915Z AUTO 16004KT 10SM CLR 26/24 A2999 RMK AO2 T02580238 PNO
KTFP 240855Z AUTO 15004KT 10SM CLR 26/24 A2999 RMK AO2 T02590238 PNO
KTFP 240835Z AUTO 15005KT 10SM CLR 26/24 A2999 RMK AO2 T02610239 PNO
KTFP 240815Z AUTO 16005KT 10SM SCT013 SCT021 26/24 A2999 RMK AO2 T02630240 PNO
KTFP 240755Z AUTO 15006KT 10SM CLR 26/24 A2999 RMK AO2 T02630240 PNO
KTFP 240735Z AUTO 15004KT 10SM SCT012 SCT026 SCT032 27/24 A2999 RMK AO2 T02660241 PNO
KTFP 240715Z AUTO 15006KT 10SM SCT014 SCT024 BKN044 27/24 A2999 RMK AO2 T02670242 PNO
KTFP 240655Z AUTO 16006KT 10SM SCT014 SCT022 BKN032 27/24 A3000 RMK AO2 T02690242 PNO
KTFP 240635Z AUTO 15007KT 10SM SCT014 BKN020 BKN024 27/24 A3000 RMK AO2 T02670242 PNO
KTFP 240615Z AUTO 15006KT 10SM SCT016 SCT022 27/24 A3000 RMK AO2 T02660240 PNO
KTFP 240555Z AUTO 15006KT 10SM SCT014 SCT020 SCT030 27/24 A3000 RMK AO2 T02670241 PNO
KTFP 240535Z AUTO 15005KT 10SM SCT016 SCT022 SCT032 27/24 A3000 RMK AO2 T02660240 PNO
KTFP 240515Z AUTO 15006KT 10SM SCT016 SCT024 SCT034 27/24 A3000 RMK AO2 T02660240 PNO
KTFP 240455Z AUTO 15005KT 10SM SCT016 SCT024 SCT033 27/24 A3000 RMK AO2 T02670238 PNO
KTFP 240435Z AUTO 15007KT 10SM SCT017 SCT021 27/24 A3000 RMK AO2 T02670237 PNO
KTFP 240415Z AUTO 15007KT 10SM SCT016 SCT034 27/24 A3000 RMK AO2 T02680236 PNO
KTFP 240355Z AUTO 15008KT 10SM SCT019 SCT034 27/24 A3000 RMK AO2 T02700236 PNO
KTFP 240335Z AUTO 15008KT 10SM SCT017 SCT021 SCT027 27/24 A2999 RMK AO2 T02700236 PNO
KTFP 240315Z AUTO 16007KT 10SM SCT017 SCT022 SCT027 27/24 A2999 RMK AO2 T02700235 PNO
KTFP 240255Z AUTO 15007KT 10SM BKN017 BKN027 BKN038 27/24 A2998 RMK AO2 T02710239 PNO
KTFP 240235Z AUTO 15007G14KT 10SM SCT015 SCT019 BKN044 27/24 A2998 RMK AO2 T02710238 PNO
KTFP 240215Z AUTO 14008KT 10SM SCT017 SCT024 27/24 A2997 RMK AO2 T02710236 PNO
KTFP 240155Z AUTO 14010KT 10SM SCT020 27/23 A2997 RMK AO2 T02730234 PNO
KTFP 240135Z AUTO 14008KT 10SM CLR 28/24 A2997 RMK AO2 T02750235 PNO
KTFP 240115Z AUTO 13011KT 10SM SCT017 SCT025 SCT033 28/24 A2996 RMK AO2 T02780236 PNO
KTFP 240055Z AUTO 14011G15KT 10SM SCT017 SCT024 BKN031 28/23 A2995 RMK AO2 T02810234 PNO
KTFP 240035Z AUTO 14011KT 10SM SCT019 29/24 A2994 RMK AO2 T02850236 PNO
KTFP 240015Z AUTO 14010KT 10SM CLR 29/24 A2993 RMK AO2 T02900235 PNO
KTFP 232355Z AUTO 15010KT 10SM CLR 30/23 A2993 RMK AO2 T02950230 PNO
KTFP 232335Z AUTO 14012KT 10SM CLR 30/23 A2993 RMK AO2 T02990231 PNO
KTFP 232315Z AUTO 16010KT 10SM CLR 30/23 A2993 RMK AO2 T03020233 PNO
KTFP 232255Z AUTO 14012G18KT 10SM CLR 31/23 A2994 RMK AO2 T03060231 PNO
KTFP 232235Z AUTO 14011KT 10SM CLR 31/23 A2994 RMK AO2 T03060233 PNO
KTFP 232215Z AUTO 14013KT 10SM SCT021 31/23 A2995 RMK AO2 T03110230 PNO
KTFP 232155Z AUTO 14012G16KT 10SM CLR 31/23 A2995 RMK AO2 LTG DSNT N T03130228 PNO
KTFP 232135Z AUTO 16013KT 10SM SCT023 32/23 A2995 RMK AO2 LTG DSNT E T03150230 PNO
KTFP 232115Z AUTO 14014KT 10SM SCT023 31/23 A2996 RMK AO2 T03130226 PNO
KTFP 232055Z AUTO 13012G16KT 10SM SCT025 31/23 A2997 RMK AO2 T03100228 PNO
KTFP 232035Z AUTO 14011G16KT 10SM SCT025 SCT029 31/23 A2997 RMK AO2 T03120229 PNO
KTFP 232015Z AUTO 15012G16KT 10SM SCT025 32/23 A2997 RMK AO2 LTG DSNT E T03160226 PNO
KTFP 231955Z AUTO 15010G16KT 10SM SCT023 32/23 A2997 RMK AO2 T03170229 PNO
KTFP 231935Z AUTO 16011G14KT 10SM SCT023 SCT028 32/23 A2997 RMK AO2 T03190230 PNO
KTFP 231915Z AUTO 16010G14KT 10SM SCT025 SCT030 32/23 A2997 RMK AO2 T03180226 PNO
KTFP 231855Z AUTO 16009KT 10SM SCT028 SCT034 SCT040 32/22 A2997 RMK AO2 LTG DSNT NE T03150221 PNO
KTFP 231835Z AUTO 17009KT 10SM SCT028 SCT033 SCT040 31/23 A2998 RMK AO2 T03120225 PNO
KTFP 231815Z AUTO 16009G15KT 10SM SCT026 SCT031 32/22 A2999 RMK AO2 LTG DSNT NE T03210223 PNO
KTFP 231755Z AUTO 16010KT 10SM SCT026 SCT031 SCT040 31/22 A2998 RMK AO2 LTG DSNT E T03110220 PNO
KTFP 231735Z AUTO 17009KT 10SM SCT023 SCT032 SCT038 32/23 A2999 RMK AO2 LTG DSNT E T03150228 PNO
KTFP 231715Z AUTO 17007KT 130V200 10SM SCT021 SCT026 31/23 A2999 RMK AO2 T03110230 PNO